Time;durP1;ratioP1;P1;durP2;ratioP2;P2;SDS_P1;SDS_P2;PMS_P1;PMS_P2;Temp;Humidity;BMP_temperature;BMP_pressure;BME280_temperature;BME280_humidity;BME280_pressure;Samples;Min_cycle;Max_cycle;Signal;HPM_P1;HPM_P2
2023/09/17 00:02:06;;;;;;;1.70;1.60;;;;;;;24.13;72.91;97393.13;5004062;28;20217;-27
2023/09/17 00:04:33;;;;;;;2.03;1.93;;;;;;;24.06;73.04;97381.03;4978204;28;20225;-26
2023/09/17 00:07:00;;;;;;;1.90;1.80;;;;;;;24.12;72.80;97395.66;4997459;28;20253;-26
2023/09/17 00:09:27;;;;;;;2.00;1.90;;;;;;;24.12;72.83;97387.97;5007007;28;20198;-26
2023/09/17 00:11:53;;;;;;;1.90;1.80;;;;;;;24.11;73.04;97388.81;5007602;28;20227;-26
2023/09/17 00:14:20;;;;;;;2.33;2.20;;;;;;;24.02;73.06;97371.56;4999952;28;20254;-26
2023/09/17 00:16:46;;;;;;;1.90;1.80;;;;;;;24.10;73.19;97385.38;4993117;28;20222;-29
2023/09/17 00:19:13;;;;;;;2.10;2.00;;;;;;;24.08;73.05;97383.63;4986974;28;20246;-26
2023/09/17 00:21:40;;;;;;;2.20;2.00;;;;;;;24.09;73.03;97385.34;4983345;28;20214;-26
2023/09/17 00:24:07;;;;;;;1.70;1.60;;;;;;;24.09;73.08;97400.75;5003417;28;20199;-26
2023/09/17 00:26:34;;;;;;;2.10;2.00;;;;;;;24.09;73.04;97393.94;5002045;28;20222;-26
2023/09/17 00:29:00;;;;;;;1.80;1.70;;;;;;;24.09;73.06;97383.66;5001624;28;20207;-26
2023/09/17 00:31:27;;;;;;;2.03;1.93;;;;;;;24.10;73.10;97402.50;5008175;28;20194;-26
2023/09/17 00:33:54;;;;;;;1.97;1.87;;;;;;;24.10;73.32;97390.50;5003747;28;20229;-26
2023/09/17 00:36:21;;;;;;;2.00;1.90;;;;;;;24.10;73.19;97387.94;5009008;28;20664;-26
2023/09/17 00:38:48;;;;;;;1.90;1.80;;;;;;;24.10;73.03;97395.66;5003863;28;20207;-26
2023/09/17 00:41:15;;;;;;;2.10;1.90;;;;;;;24.12;72.82;97387.97;5007535;28;20222;-26
2023/09/17 00:43:41;;;;;;;2.10;2.00;;;;;;;24.12;73.25;97393.97;5006444;28;20291;-26
2023/09/17 00:46:08;;;;;;;1.90;1.80;;;;;;;24.11;73.06;97389.69;5003398;28;20720;-26
2023/09/17 00:48:35;;;;;;;2.30;2.10;;;;;;;24.12;73.21;97390.53;5005594;28;20229;-26
2023/09/17 00:51:02;;;;;;;2.20;2.10;;;;;;;24.13;73.46;97390.56;4982741;28;20198;-26
2023/09/17 00:53:29;;;;;;;2.30;2.20;;;;;;;24.13;72.88;97389.72;4988228;28;20203;-26
2023/09/17 00:55:56;;;;;;;3.10;2.00;;;;;;;24.01;73.13;97371.53;5013254;28;20248;-26
2023/09/17 00:58:22;;;;;;;2.20;2.10;;;;;;;24.14;73.17;97394.00;4992004;28;20330;-26
2023/09/17 01:00:49;;;;;;;1.80;1.70;;;;;;;24.13;73.13;97387.16;5007744;28;20226;-26
2023/09/17 01:03:16;;;;;;;1.90;1.80;;;;;;;24.13;72.82;97390.56;5013400;28;20202;-26
2023/09/17 01:05:42;;;;;;;2.00;1.90;;;;;;;24.14;72.77;97388.88;4985485;28;20664;-26
2023/09/17 01:08:09;;;;;;;2.30;2.13;;;;;;;24.13;72.98;97393.13;5052191;22;20315;-27
2023/09/17 01:10:39;;;;;;;2.23;2.10;;;;;;;24.13;73.19;97385.44;5043445;28;20219;-26
2023/09/17 01:13:08;;;;;;;2.03;1.93;;;;;;;24.13;72.74;97385.44;5047011;28;20207;-26
2023/09/17 01:15:35;;;;;;;2.00;1.90;;;;;;;24.13;72.83;97387.16;5037729;28;20206;-26
2023/09/17 01:18:02;;;;;;;2.90;1.90;;;;;;;24.11;73.10;97384.56;5051132;28;20216;-28
2023/09/17 01:20:30;;;;;;;2.00;1.90;;;;;;;24.11;73.02;97379.41;5024912;28;20291;-27
2023/09/17 01:23:02;;;;;;;2.23;2.07;;;;;;;24.13;73.17;97389.72;5034981;28;20232;-26
2023/09/17 01:25:54;;;;;;;1.90;1.80;;;;;;;24.12;72.75;97388.84;5035980;28;20277;-26
2023/09/17 01:28:22;;;;;;;2.13;2.03;;;;;;;24.11;72.86;97382.00;5039739;28;20611;-26
2023/09/17 01:30:48;;;;;;;2.27;2.10;;;;;;;24.09;72.78;97375.06;5053192;28;20209;-27
2023/09/17 01:33:15;;;;;;;1.97;1.87;;;;;;;24.10;73.18;97376.81;5049219;28;20307;-27
2023/09/17 01:36:11;;;;;;;2.27;2.17;;;;;;;24.10;72.95;97381.97;5053065;28;20240;-26
2023/09/17 01:38:40;;;;;;;2.10;2.00;;;;;;;24.08;73.22;97376.81;5049215;28;20224;-26
2023/09/17 01:41:07;;;;;;;2.10;2.00;;;;;;;24.11;72.98;97375.97;5035073;28;20270;-26
2023/09/17 01:43:33;;;;;;;2.30;2.10;;;;;;;24.11;72.83;97370.84;5034845;28;20287;-27
2023/09/17 01:46:00;;;;;;;2.20;2.10;;;;;;;24.11;72.83;97360.56;5052785;28;20229;-27
2023/09/17 01:48:27;;;;;;;2.37;2.20;;;;;;;24.11;72.89;97358.88;5052425;28;20229;-26
2023/09/17 01:50:54;;;;;;;2.00;1.90;;;;;;;24.11;72.76;97364.00;5018407;28;20220;-27
2023/09/17 01:53:21;;;;;;;1.80;1.70;;;;;;;24.11;73.01;97366.59;5015204;28;20317;-26
2023/09/17 01:55:52;;;;;;;2.33;2.20;;;;;;;24.12;72.77;97364.84;5051624;28;20228;-27
2023/09/17 01:58:21;;;;;;;2.17;2.07;;;;;;;24.12;73.21;97364.84;5044676;28;20315;-28
2023/09/17 02:00:49;;;;;;;2.17;2.07;;;;;;;24.12;73.07;97364.84;5052294;28;20225;-27
2023/09/17 02:03:15;;;;;;;2.10;2.00;;;;;;;24.12;73.01;97364.84;5051696;28;20228;-26
2023/09/17 02:05:42;;;;;;;2.90;2.20;;;;;;;24.12;72.74;97367.44;5052320;28;20205;-27
2023/09/17 02:08:09;;;;;;;2.10;2.00;;;;;;;24.13;72.74;97361.47;5051967;28;20274;-26
2023/09/17 02:10:35;;;;;;;2.20;2.10;;;;;;;24.13;72.97;97362.31;5018032;28;20196;-27
2023/09/17 02:13:02;;;;;;;2.30;2.17;;;;;;;24.13;73.08;97358.91;5051809;28;20656;-27
2023/09/17 02:15:29;;;;;;;2.17;2.03;;;;;;;24.13;72.91;97359.75;5052128;28;20208;-26
2023/09/17 02:17:56;;;;;;;2.17;2.07;;;;;;;24.13;72.93;97362.31;5052007;28;20714;-27
2023/09/17 02:20:22;;;;;;;2.23;2.10;;;;;;;24.14;72.96;97368.31;5051916;28;20244;-26
2023/09/17 02:22:50;;;;;;;2.13;1.97;;;;;;;24.14;72.76;97369.19;5051781;28;20225;-27
2023/09/17 02:25:17;;;;;;;2.40;2.23;;;;;;;24.12;72.55;97373.44;5051480;28;20252;-26
2023/09/17 02:27:45;;;;;;;2.20;2.07;;;;;;;24.12;72.94;97375.13;5033476;28;20240;-27
2023/09/17 02:30:12;;;;;;;2.13;2.03;;;;;;;24.13;73.07;97380.28;5051668;28;20560;-26
2023/09/17 02:32:39;;;;;;;2.43;2.30;;;;;;;24.12;72.90;97373.44;5051715;28;20662;-27
2023/09/17 02:35:07;;;;;;;2.00;1.90;;;;;;;24.13;72.77;97376.88;5051630;28;20664;-26
2023/09/17 02:37:33;;;;;;;2.10;2.00;;;;;;;24.13;72.58;97379.44;5051778;28;20228;-26
2023/09/17 02:40:00;;;;;;;2.00;1.90;;;;;;;24.12;72.73;97388.84;5051988;28;20243;-27
2023/09/17 02:42:26;;;;;;;2.30;2.20;;;;;;;24.13;72.88;97392.28;5051624;28;20279;-27
2023/09/17 02:44:53;;;;;;;3.33;2.03;;;;;;;24.11;72.62;97394.81;5051767;28;20582;-26
2023/09/17 02:47:19;;;;;;;2.33;2.23;;;;;;;24.05;72.69;97396.41;5051280;28;20604;-27
2023/09/17 02:49:46;;;;;;;2.20;2.00;;;;;;;24.09;73.07;97408.47;5034217;28;20677;-26
2023/09/17 02:52:13;;;;;;;2.20;2.00;;;;;;;24.10;72.79;97405.06;5051619;28;20678;-27
2023/09/17 02:54:40;;;;;;;2.07;1.97;;;;;;;24.08;72.95;97402.47;5051360;28;20201;-26
2023/09/17 02:57:07;;;;;;;1.90;1.80;;;;;;;24.08;72.81;97405.03;5051473;28;20240;-26
2023/09/17 02:59:34;;;;;;;2.33;2.23;;;;;;;24.08;72.65;97407.63;5051821;28;20205;-27
2023/09/17 03:02:01;;;;;;;2.00;1.90;;;;;;;24.07;72.88;97402.44;5051028;28;20225;-26
2023/09/17 03:04:28;;;;;;;2.30;2.20;;;;;;;24.07;72.49;97390.47;5050945;28;20326;-26
2023/09/17 03:06:54;;;;;;;2.17;2.07;;;;;;;24.07;73.09;97390.47;5051205;28;20307;-26
2023/09/17 03:09:21;;;;;;;2.20;2.10;;;;;;;24.07;73.37;97389.63;5051415;28;20209;-25
2023/09/17 03:11:47;;;;;;;2.10;2.00;;;;;;;24.07;73.05;97405.03;5051177;28;20284;-26
2023/09/17 03:14:14;;;;;;;2.20;2.10;;;;;;;24.07;72.98;97407.59;5051008;28;20228;-27
2023/09/17 03:16:41;;;;;;;2.20;2.10;;;;;;;24.08;72.91;97409.31;5033459;28;20205;-27
2023/09/17 03:19:07;;;;;;;2.17;2.07;;;;;;;24.08;72.85;97414.44;5050839;28;20201;-26
2023/09/17 03:21:40;;;;;;;2.30;2.20;;;;;;;24.08;72.96;97415.31;5050883;28;20270;-26
2023/09/17 03:24:08;;;;;;;2.10;2.00;;;;;;;24.08;72.80;97425.59;5051021;28;20342;-27
2023/09/17 03:26:36;;;;;;;2.20;2.10;;;;;;;24.09;72.99;97429.00;5051029;28;20606;-27
2023/09/17 03:29:03;;;;;;;2.20;2.10;;;;;;;24.09;72.70;97429.00;5050938;28;20289;-28
2023/09/17 03:31:30;;;;;;;2.30;2.10;;;;;;;24.10;72.80;97430.75;5050689;28;20730;-27
2023/09/17 03:33:57;;;;;;;2.43;2.30;;;;;;;24.11;72.98;97429.91;5050768;28;20200;-26
2023/09/17 03:36:23;;;;;;;2.47;2.30;;;;;;;24.09;72.89;97427.31;5051107;28;20205;-27
2023/09/17 03:38:50;;;;;;;1.90;1.80;;;;;;;24.11;72.67;97429.91;5033985;28;20275;-28
2023/09/17 03:41:16;;;;;;;2.37;2.27;;;;;;;24.11;72.60;97425.63;5054433;28;20649;-26
2023/09/17 03:43:43;;;;;;;2.33;2.13;;;;;;;24.12;72.69;97427.34;5037219;28;20254;-27
2023/09/17 03:46:10;;;;;;;2.40;2.27;;;;;;;24.13;72.73;97430.81;5036856;28;20205;-27
2023/09/17 03:48:38;;;;;;;2.10;2.00;;;;;;;24.10;72.74;97423.03;5054732;28;20750;-27
2023/09/17 03:51:04;;;;;;;2.13;2.03;;;;;;;24.10;72.40;97429.03;5054559;28;20204;-27
2023/09/17 03:53:31;;;;;;;2.17;2.03;;;;;;;24.11;72.72;97429.91;5037008;28;20201;-26
2023/09/17 03:55:58;;;;;;;2.20;2.00;;;;;;;24.11;72.57;97425.63;5054621;28;20663;-27
2023/09/17 03:58:25;;;;;;;2.10;2.00;;;;;;;24.11;72.52;97417.06;5036740;28;20230;-27
2023/09/17 04:00:51;;;;;;;2.10;2.00;;;;;;;24.04;72.80;97408.38;5036989;28;20577;-26
2023/09/17 04:03:19;;;;;;;2.23;2.13;;;;;;;24.11;72.89;97429.91;5054282;28;20579;-26
2023/09/17 04:05:48;;;;;;;2.10;2.00;;;;;;;24.08;72.70;97423.03;5054590;28;20201;-27
2023/09/17 04:08:15;;;;;;;2.03;1.93;;;;;;;24.06;73.08;97416.97;5054084;28;20256;-26
2023/09/17 04:10:41;;;;;;;2.53;2.33;;;;;;;24.06;72.61;97422.13;5054189;28;20205;-26
2023/09/17 04:13:09;;;;;;;2.40;2.20;;;;;;;24.06;73.13;97427.25;5054337;28;20546;-26
2023/09/17 04:15:36;;;;;;;2.70;2.50;;;;;;;24.06;73.11;97429.81;5054717;28;20664;-26
2023/09/17 04:18:04;;;;;;;2.00;1.90;;;;;;;24.04;72.87;97434.03;5054426;28;20232;-25
2023/09/17 04:20:31;;;;;;;2.30;2.20;;;;;;;24.05;73.18;97434.91;5046353;28;20205;-27
2023/09/17 04:22:58;;;;;;;2.27;2.17;;;;;;;24.03;73.05;97429.75;5053903;28;20331;-26
2023/09/17 04:25:25;;;;;;;2.70;2.50;;;;;;;24.05;72.91;97440.06;5053847;28;20208;-26
2023/09/17 04:27:52;;;;;;;2.43;2.23;;;;;;;24.06;73.14;97441.78;5054133;28;20213;-26
2023/09/17 04:30:19;;;;;;;2.20;2.10;;;;;;;24.07;73.31;97446.94;5054196;28;20296;-26
2023/09/17 04:32:47;;;;;;;2.37;2.20;;;;;;;24.05;73.11;97440.94;5053984;28;20243;-27
2023/09/17 04:35:17;;;;;;;2.20;2.10;;;;;;;24.07;72.97;97444.38;5053909;28;20296;-27
2023/09/17 04:37:46;;;;;;;2.30;2.20;;;;;;;24.07;72.90;97451.22;5053925;28;20275;-26
2023/09/17 04:40:13;;;;;;;2.13;2.03;;;;;;;24.07;72.98;97448.66;5053919;28;20351;-27
2023/09/17 04:42:40;;;;;;;2.23;2.13;;;;;;;24.08;72.70;97453.81;5053761;28;20217;-26
2023/09/17 04:45:08;;;;;;;2.20;2.10;;;;;;;24.09;73.12;97449.53;5036207;28;20302;-26
2023/09/17 04:47:37;;;;;;;2.20;2.10;;;;;;;24.09;72.63;97442.72;5053675;28;20220;-26
2023/09/17 04:50:07;;;;;;;2.37;2.20;;;;;;;24.08;73.00;97448.69;5053703;28;20204;-26
2023/09/17 04:52:35;;;;;;;2.50;2.30;;;;;;;24.10;72.80;97453.84;5044535;28;20630;-27
2023/09/17 04:55:03;;;;;;;2.10;1.97;;;;;;;24.06;72.67;97450.34;5053809;28;20205;-26
2023/09/17 04:57:30;;;;;;;2.23;2.13;;;;;;;24.09;72.80;97465.81;5053677;28;20662;-26
2023/09/17 04:59:56;;;;;;;2.40;2.20;;;;;;;24.07;72.58;97457.22;5053775;28;20250;-26
2023/09/17 05:02:25;;;;;;;2.20;2.10;;;;;;;24.10;73.04;97459.84;5052742;28;20714;-26
2023/09/17 05:04:53;;;;;;;2.47;2.27;;;;;;;24.09;72.78;97460.69;5053672;28;20205;-26
2023/09/17 05:07:19;;;;;;;2.33;2.23;;;;;;;24.10;72.73;97459.84;5053081;28;20225;-26
2023/09/17 05:09:46;;;;;;;2.30;2.20;;;;;;;24.09;72.76;97462.38;5053473;28;20705;-25
2023/09/17 05:12:13;;;;;;;2.50;2.30;;;;;;;24.10;72.88;97466.69;5053056;28;20223;-25
2023/09/17 05:14:40;;;;;;;2.40;2.30;;;;;;;24.09;72.49;97465.81;5053182;28;20208;-27
2023/09/17 05:17:09;;;;;;;2.33;2.13;;;;;;;24.09;72.62;97467.50;5053308;28;20256;-26
2023/09/17 05:19:36;;;;;;;2.30;2.20;;;;;;;24.09;72.76;97460.69;5045291;28;20227;-26
2023/09/17 05:22:02;;;;;;;2.43;2.23;;;;;;;24.08;72.55;97458.09;5052948;28;20224;-27
2023/09/17 05:24:29;;;;;;;2.10;2.00;;;;;;;24.07;72.71;97459.78;5052696;28;20201;-26
2023/09/17 05:26:55;;;;;;;2.20;2.10;;;;;;;24.06;72.73;97452.94;5053098;28;20275;-26
2023/09/17 05:29:22;;;;;;;2.50;2.30;;;;;;;24.06;72.97;97455.50;5052558;28;20212;-27
2023/09/17 05:31:49;;;;;;;2.50;2.30;;;;;;;24.06;73.09;97459.75;5052975;28;20251;-26
2023/09/17 05:34:15;;;;;;;3.00;2.43;;;;;;;24.06;72.73;97458.06;5052721;28;20200;-26
2023/09/17 05:36:42;;;;;;;2.30;2.20;;;;;;;24.07;73.13;97456.38;5035534;28;20201;-26
2023/09/17 05:39:08;;;;;;;2.50;2.30;;;;;;;24.07;72.65;97459.78;5052798;28;20236;-27
2023/09/17 05:41:37;;;;;;;2.43;2.23;;;;;;;24.07;72.94;97459.78;5052373;28;20224;-27
2023/09/17 05:44:03;;;;;;;2.30;2.20;;;;;;;24.07;72.91;97446.94;5052541;28;20223;-26
2023/09/17 05:46:33;;;;;;;2.13;2.03;;;;;;;24.08;72.56;97464.09;5052591;28;20208;-27
2023/09/17 05:49:00;;;;;;;2.20;2.10;;;;;;;24.08;72.88;97468.34;5047424;28;20204;-26
2023/09/17 05:51:26;;;;;;;2.60;2.40;;;;;;;24.09;72.80;97468.38;5052499;28;20208;-26
2023/09/17 05:53:53;;;;;;;2.37;2.27;;;;;;;24.09;72.70;97465.81;5052420;28;20201;-26
2023/09/17 05:56:19;;;;;;;2.27;2.17;;;;;;;24.09;72.82;97459.81;5052351;28;20205;-27
2023/09/17 05:58:46;;;;;;;2.30;2.20;;;;;;;24.05;72.49;97451.22;5052260;28;20648;-27
2023/09/17 06:01:12;;;;;;;2.40;2.20;;;;;;;24.10;72.79;97471.81;5052553;28;20221;-27
2023/09/17 06:03:39;;;;;;;2.27;2.10;;;;;;;24.10;72.67;97475.25;5051776;28;20572;-26
2023/09/17 06:06:06;;;;;;;2.40;2.20;;;;;;;24.10;72.47;97471.81;5052385;28;20197;-27
2023/09/17 06:08:32;;;;;;;2.30;2.20;;;;;;;24.11;72.65;97474.44;5051739;28;20261;-26
2023/09/17 06:10:59;;;;;;;3.03;2.30;;;;;;;24.11;72.84;97478.69;5052327;28;20555;-27
2023/09/17 06:13:26;;;;;;;2.40;2.30;;;;;;;24.11;72.65;97486.38;5051975;28;20295;-26
2023/09/17 06:15:53;;;;;;;2.83;2.63;;;;;;;24.11;72.31;97487.25;5052092;28;20201;-26
2023/09/17 06:18:19;;;;;;;2.13;2.03;;;;;;;24.13;72.50;97500.13;5051813;28;20224;-26
2023/09/17 06:20:46;;;;;;;2.20;2.10;;;;;;;24.11;72.25;97500.09;5052020;28;20584;-27
2023/09/17 06:23:12;;;;;;;2.40;2.30;;;;;;;24.12;72.55;97498.38;5033918;28;20216;-26
2023/09/17 06:25:39;;;;;;;2.27;2.17;;;;;;;24.12;72.20;97501.81;5051866;28;20201;-26
2023/09/17 06:28:06;;;;;;;2.37;2.27;;;;;;;24.12;72.50;97499.25;5046913;28;20224;-26
2023/09/17 06:30:32;;;;;;;2.17;2.07;;;;;;;24.12;72.64;97503.50;5051833;28;20227;-27
2023/09/17 06:32:59;;;;;;;2.13;2.03;;;;;;;24.11;72.22;97496.66;5051552;28;20288;-27
2023/09/17 06:35:25;;;;;;;2.20;2.10;;;;;;;24.10;72.57;97497.50;5034084;28;20244;-26
2023/09/17 06:37:52;;;;;;;2.23;2.13;;;;;;;24.11;72.30;97501.78;5033712;28;20221;-26
2023/09/17 06:40:19;;;;;;;2.17;2.07;;;;;;;24.04;72.61;97490.53;5052012;28;20376;-23
2023/09/17 06:42:45;;;;;;;2.70;2.50;;;;;;;24.07;72.67;97492.31;5051562;28;20278;-27
2023/09/17 06:45:12;;;;;;;2.60;2.40;;;;;;;24.08;72.34;97500.03;5051840;28;20369;-26
2023/09/17 06:47:38;;;;;;;2.60;2.40;;;;;;;24.08;72.36;97504.31;5051370;28;20228;-26
2023/09/17 06:50:07;;;;;;;2.77;2.57;;;;;;;24.07;72.71;97503.44;5033856;28;20204;-26
2023/09/17 06:52:34;;;;;;;2.10;2.00;;;;;;;24.05;72.77;97494.84;5033768;28;20712;-27
2023/09/17 06:55:00;;;;;;;2.10;2.00;;;;;;;24.08;72.58;97500.03;5033883;28;20204;-26
2023/09/17 06:57:27;;;;;;;2.40;2.30;;;;;;;24.08;72.53;97492.34;5051319;28;20221;-26
2023/09/17 06:59:53;;;;;;;2.33;2.23;;;;;;;24.08;72.84;97497.47;5051470;28;20267;-26
2023/09/17 07:02:20;;;;;;;2.50;2.30;;;;;;;24.08;72.73;97492.34;5050872;28;20227;-26
2023/09/17 07:04:47;;;;;;;2.50;2.30;;;;;;;24.08;72.76;97487.22;5051184;28;20247;-26
2023/09/17 07:07:14;;;;;;;2.83;2.63;;;;;;;24.09;72.57;97494.06;5065108;22;20256;-25
2023/09/17 07:09:41;;;;;;;2.60;2.40;;;;;;;24.09;72.62;97496.63;5019996;28;20293;-24
2023/09/17 07:12:07;;;;;;;2.30;2.20;;;;;;;24.09;72.64;97500.88;5017457;28;20205;-24
2023/09/17 07:14:34;;;;;;;2.27;2.17;;;;;;;24.09;72.39;97500.88;4996463;28;20253;-24
2023/09/17 07:17:01;;;;;;;2.70;2.50;;;;;;;24.09;72.73;97503.47;5012316;28;20292;-24
2023/09/17 07:19:28;;;;;;;2.80;2.60;;;;;;;24.09;72.81;97506.91;5020495;28;20210;-24
2023/09/17 07:21:54;;;;;;;2.70;2.50;;;;;;;24.10;72.79;97521.47;5023031;28;20205;-24
2023/09/17 07:24:22;;;;;;;2.53;2.33;;;;;;;24.10;72.67;97524.03;5014144;28;20206;-24
2023/09/17 07:26:49;;;;;;;2.50;2.30;;;;;;;24.10;72.75;97531.72;5014063;28;20202;-24
2023/09/17 07:29:15;;;;;;;2.43;2.33;;;;;;;24.11;72.76;97536.06;5011348;28;20233;-24
2023/09/17 07:31:44;;;;;;;2.40;2.30;;;;;;;24.11;72.47;97530.03;5008763;28;20421;-24
2023/09/17 07:34:10;;;;;;;2.23;2.13;;;;;;;24.12;72.37;97526.63;5017263;28;20297;-24
2023/09/17 07:36:37;;;;;;;2.47;2.37;;;;;;;24.12;72.42;97534.31;5021879;28;20246;-24
2023/09/17 07:39:04;;;;;;;2.50;2.30;;;;;;;24.12;72.21;97536.91;5004751;28;20257;-24
2023/09/17 07:41:30;;;;;;;2.60;2.40;;;;;;;24.12;72.67;97542.03;5012365;28;20258;-24
2023/09/17 07:43:57;;;;;;;2.37;2.20;;;;;;;24.13;72.19;97536.06;5011192;28;20317;-24
2023/09/17 07:46:24;;;;;;;2.27;2.17;;;;;;;24.12;72.66;97526.63;5008858;28;20209;-24
2023/09/17 07:48:50;;;;;;;2.30;2.20;;;;;;;24.11;72.40;97524.91;5015762;28;20663;-24
2023/09/17 07:51:18;;;;;;;2.50;2.30;;;;;;;24.11;72.61;97524.91;5011410;28;20199;-24
2023/09/17 07:53:44;;;;;;;2.40;2.20;;;;;;;24.11;72.48;97522.34;5020612;28;20203;-24
2023/09/17 07:56:11;;;;;;;2.20;2.10;;;;;;;24.09;72.40;97512.03;5023023;28;20236;-24
2023/09/17 07:58:37;;;;;;;2.57;2.37;;;;;;;24.03;72.46;97495.63;5014145;28;20596;-24
2023/09/17 08:01:07;;;;;;;2.50;2.30;;;;;;;24.09;72.86;97500.88;5010075;28;20676;-24
2023/09/17 08:03:34;;;;;;;2.30;2.20;;;;;;;24.08;72.35;97496.59;5013037;28;20716;-24
2023/09/17 08:06:02;;;;;;;2.53;2.33;;;;;;;24.07;72.68;97503.44;5004299;28;20206;-24
2023/09/17 08:08:29;;;;;;;2.50;2.40;;;;;;;24.06;72.62;97501.72;5007400;28;20312;-24
2023/09/17 08:10:56;;;;;;;2.20;2.10;;;;;;;24.08;72.70;97494.03;5009710;28;20850;-24
2023/09/17 08:13:22;;;;;;;2.60;2.40;;;;;;;24.08;73.09;97504.31;5020297;28;20596;-23
2023/09/17 08:15:50;;;;;;;2.20;2.10;;;;;;;24.07;72.90;97513.69;5019007;28;20207;-24
2023/09/17 08:18:18;;;;;;;2.30;2.20;;;;;;;24.08;73.12;97518.03;5018730;28;20221;-25
2023/09/17 08:20:44;;;;;;;2.10;2.00;;;;;;;24.09;72.70;97524.00;5011086;28;20264;-24
2023/09/17 08:23:11;;;;;;;2.90;2.70;;;;;;;24.09;72.90;97527.44;5010745;28;20222;-24
2023/09/17 08:25:37;;;;;;;2.20;2.10;;;;;;;24.09;72.63;97516.28;5019168;28;20276;-26
2023/09/17 08:28:06;;;;;;;2.47;2.27;;;;;;;24.09;72.40;97522.31;5007431;28;20597;-24
2023/09/17 08:30:38;;;;;;;2.83;2.40;;;;;;;24.10;72.54;97518.88;5024223;28;20240;-24
2023/09/17 08:33:05;;;;;;;2.20;2.10;;;;;;;24.11;72.45;97524.91;5014252;28;20229;-24
2023/09/17 08:35:32;;;;;;;2.07;1.97;;;;;;;24.11;72.57;97525.78;5027812;28;20205;-25
2023/09/17 08:38:00;;;;;;;2.60;2.40;;;;;;;24.11;73.09;97530.91;5012070;28;20223;-24
2023/09/17 08:40:27;;;;;;;2.40;2.20;;;;;;;24.10;72.71;97524.03;4999066;28;20209;-25
2023/09/17 08:42:58;;;;;;;2.43;2.33;;;;;;;24.11;72.33;97536.06;5005520;28;20227;-24
2023/09/17 08:45:25;;;;;;;2.60;2.40;;;;;;;24.12;72.88;97537.78;5010085;28;20524;-24
2023/09/17 08:47:52;;;;;;;2.30;2.20;;;;;;;24.12;72.53;97549.72;4980399;28;20265;-24
2023/09/17 08:50:19;;;;;;;2.73;2.53;;;;;;;24.12;72.84;97542.91;5014575;28;20207;-23
2023/09/17 08:52:48;;;;;;;2.20;2.10;;;;;;;24.13;72.59;97536.06;5020670;28;20264;-24
2023/09/17 08:55:15;;;;;;;2.53;2.33;;;;;;;24.13;72.81;97544.63;5003537;28;20671;-24
2023/09/17 08:57:42;;;;;;;2.50;2.30;;;;;;;23.91;72.72;97503.94;5003503;28;20246;-24
2023/09/17 09:00:10;;;;;;;2.30;2.20;;;;;;;24.12;72.86;97547.16;4986677;28;20199;-24
2023/09/17 09:02:44;;;;;;;2.40;2.30;;;;;;;24.13;72.77;97551.50;5001192;28;20233;-24
2023/09/17 09:05:14;;;;;;;2.33;2.23;;;;;;;24.13;72.42;97554.06;5019382;28;20288;-23
2023/09/17 09:07:42;;;;;;;2.83;2.63;;;;;;;24.12;72.45;97547.16;5004732;28;20226;-24
2023/09/17 09:10:09;;;;;;;2.53;2.37;;;;;;;24.07;72.77;97535.97;5004117;28;20242;-24
2023/09/17 09:12:37;;;;;;;2.37;2.27;;;;;;;23.97;72.80;97521.19;5013350;28;20697;-24
2023/09/17 09:15:05;;;;;;;2.30;2.20;;;;;;;24.05;72.90;97533.38;4984487;28;20205;-23
2023/09/17 09:17:31;;;;;;;2.20;2.10;;;;;;;24.10;72.57;97536.88;4988332;28;20234;-25
2023/09/17 09:19:58;;;;;;;2.97;2.77;;;;;;;24.09;72.84;97537.72;5013479;28;20198;-24
2023/09/17 09:22:25;;;;;;;2.60;2.33;;;;;;;24.09;72.90;97547.09;4985602;28;20209;-24
2023/09/17 09:24:52;;;;;;;2.30;2.20;;;;;;;24.08;72.94;97538.56;5016612;28;20206;-24
2023/09/17 09:27:18;;;;;;;2.60;2.40;;;;;;;24.08;72.80;97533.44;5013369;28;20748;-24
2023/09/17 09:29:45;;;;;;;2.17;2.07;;;;;;;24.07;73.00;97529.09;5014753;28;20311;-24
2023/09/17 09:32:12;;;;;;;2.40;2.20;;;;;;;24.08;72.65;97532.53;5015297;28;20198;-24
2023/09/17 09:34:42;;;;;;;2.53;2.37;;;;;;;24.07;73.08;97547.06;4979616;28;20210;-24
2023/09/17 09:37:09;;;;;;;2.40;2.20;;;;;;;24.07;73.15;97547.06;5028828;28;20198;-24
2023/09/17 09:39:36;;;;;;;2.40;2.30;;;;;;;24.07;72.90;97539.38;5026037;28;20217;-24
2023/09/17 09:42:07;;;;;;;2.40;2.30;;;;;;;24.07;72.99;97534.25;5013231;28;20248;-24
2023/09/17 09:44:35;;;;;;;2.40;2.30;;;;;;;24.07;72.83;97530.81;5002404;28;20226;-24
2023/09/17 09:47:02;;;;;;;2.27;2.17;;;;;;;24.07;72.96;97530.81;4982996;28;20197;-24
2023/09/17 09:49:29;;;;;;;2.37;2.27;;;;;;;24.08;nan;97533.44;5027018;28;20206;-24
2023/09/17 09:51:57;;;;;;;2.40;2.30;;;;;;;24.09;73.04;97529.13;4999206;28;20260;-24
2023/09/17 09:54:24;;;;;;;2.70;2.50;;;;;;;24.09;72.81;97531.69;5018973;28;20209;-24
2023/09/17 09:56:52;;;;;;;2.03;1.93;;;;;;;24.10;73.27;97547.13;5013704;28;20628;-24
2023/09/17 09:59:18;;;;;;;2.60;2.40;;;;;;;24.09;72.94;97540.28;5004545;28;20234;-24
2023/09/17 10:01:45;;;;;;;2.57;2.37;;;;;;;24.11;73.05;97542.88;4984053;28;20211;-24
2023/09/17 10:04:12;;;;;;;2.70;2.50;;;;;;;24.11;73.05;97542.88;5003343;28;20622;-24
2023/09/17 10:06:39;;;;;;;2.37;2.27;;;;;;;24.12;72.85;97536.91;5008416;28;20271;-24
2023/09/17 10:09:10;;;;;;;2.20;2.10;;;;;;;24.12;72.64;97531.75;5018617;28;20320;-24
2023/09/17 10:11:37;;;;;;;2.20;2.10;;;;;;;24.12;72.95;97532.63;5018396;28;20252;-24
2023/09/17 10:14:05;;;;;;;2.40;2.20;;;;;;;24.13;72.84;97536.06;5021512;28;20234;-24
2023/09/17 10:16:33;;;;;;;2.40;2.30;;;;;;;24.11;72.89;97530.91;5012647;28;20290;-24
2023/09/17 10:19:00;;;;;;;2.70;2.50;;;;;;;24.07;72.49;97518.00;5015391;28;20295;-24
2023/09/17 10:21:27;;;;;;;2.07;1.97;;;;;;;24.12;73.02;97527.50;5015138;28;20258;-24
2023/09/17 10:23:54;;;;;;;2.20;2.10;;;;;;;24.12;72.80;97526.63;5025750;28;20257;-24
2023/09/17 10:26:22;;;;;;;2.30;2.20;;;;;;;24.11;72.83;97525.78;5012797;28;20206;-24
2023/09/17 10:28:49;;;;;;;2.40;2.30;;;;;;;24.11;72.67;97522.34;5024557;28;20226;-24
2023/09/17 10:31:16;;;;;;;2.17;2.07;;;;;;;24.11;72.94;97535.19;5022798;28;20285;-24
2023/09/17 10:33:44;;;;;;;2.10;2.00;;;;;;;24.09;72.74;97524.88;5007491;28;20209;-24
2023/09/17 10:36:10;;;;;;;2.20;2.10;;;;;;;24.09;73.10;97522.31;4997367;28;20728;-24
2023/09/17 10:38:38;;;;;;;2.40;2.30;;;;;;;24.08;72.64;97528.28;4998368;28;20267;-24
2023/09/17 10:41:05;;;;;;;2.23;2.10;;;;;;;24.08;72.70;97517.16;5010135;28;20660;-24
2023/09/17 10:43:36;;;;;;;2.30;2.20;;;;;;;24.03;72.88;97506.78;5011787;28;20218;-25
2023/09/17 10:46:03;;;;;;;2.63;2.43;;;;;;;24.07;73.01;97506.00;5020826;28;20575;-24
2023/09/17 10:48:31;;;;;;;2.10;2.00;;;;;;;24.08;73.14;97502.63;5021436;28;20221;-24
2023/09/17 10:50:58;;;;;;;2.60;2.40;;;;;;;24.08;73.34;97499.16;5019338;28;20260;-24
2023/09/17 10:53:26;;;;;;;3.60;2.07;;;;;;;24.08;73.08;97496.59;5021197;28;20263;-24
2023/09/17 10:56:04;;;;;;;2.10;1.90;;;;;;;24.08;73.07;97488.91;5014447;28;20292;-24
2023/09/17 10:58:34;;;;;;;2.13;2.03;;;;;;;23.95;73.13;97466.38;4999507;28;20349;-24
2023/09/17 11:01:01;;;;;;;2.37;2.27;;;;;;;24.00;72.96;97480.19;5006026;28;20233;-24
2023/09/17 11:03:28;;;;;;;2.50;2.30;;;;;;;23.92;73.55;97462.03;4986242;28;20268;-24
2023/09/17 11:05:55;;;;;;;2.30;2.20;;;;;;;24.09;74.08;97483.78;4996671;28;20213;-25
2023/09/17 11:08:21;;;;;;;2.40;2.20;;;;;;;24.05;73.88;97476.00;5018381;28;20261;-24
2023/09/17 11:10:48;;;;;;;2.27;2.17;;;;;;;24.11;73.52;97470.97;4996693;28;20248;-24
2023/09/17 11:13:15;;;;;;;2.27;2.03;;;;;;;24.06;73.66;97457.19;5022891;28;20194;-24
2023/09/17 11:15:42;;;;;;;2.17;1.97;;;;;;;24.09;73.43;97457.25;4982097;28;20292;-24
2023/09/17 11:18:08;;;;;;;2.10;2.00;;;;;;;24.12;73.36;97471.00;4999717;28;20264;-24
2023/09/17 11:20:39;;;;;;;2.40;2.20;;;;;;;24.14;73.57;97466.78;5018812;28;20209;-24
2023/09/17 11:23:05;;;;;;;2.20;2.00;;;;;;;24.15;73.14;97467.63;5002156;28;20206;-24
2023/09/17 11:25:36;;;;;;;2.23;2.03;;;;;;;24.15;73.29;97460.78;5023565;28;20750;-24
2023/09/17 11:28:10;;;;;;;2.50;2.30;;;;;;;24.17;73.38;97465.97;5024953;28;20225;-24
2023/09/17 11:31:09;;;;;;;2.47;2.27;;;;;;;24.17;73.17;97460.81;5011271;28;20206;-24
2023/09/17 11:33:39;;;;;;;4.50;2.27;;;;;;;24.17;73.33;97450.56;4953524;28;20260;-24
2023/09/17 11:36:07;;;;;;;2.43;2.23;;;;;;;24.18;73.25;97457.41;5019471;28;20244;-24